METAR de aeropuertos de Murcia y cercanos

 

LEMI - Murcia/Corvera
Actualización: 02/12/2022 20:30
Few Clouds
Few Clouds
 Viento del NNO
Viento: NNO 22 km/h
Temperatura: 11°C
Rocío: 6°C
Humedad: 72%
Barómetro: 1010 hPa
Nubosidad: Few Clouds
Visibilidad: 10 km
Cloud details: Few Clouds 762 m
2022/12/02 19:30 LEMI 021930Z 34012KT 320V020 9999 FEW025 11/06 Q1010
LERI - Murcia/Alcantarilla
Actualización: 02/12/2022 19:00
NO Actualizado
Mostly Cloudy
Mostly Cloudy
 Viento del NNO
Viento: NNO 13 km/h
Temperatura: 13°C
Rocío: 6°C
Humedad: 63%
Barómetro: 1010 hPa
Nubosidad: Mostly Cloudy
Visibilidad: 10 km
Cloud details: Mostly Cloudy 1189 m
2022/12/02 18:00 LERI 021800Z 33007KT 9999 BKN039 13/06 Q1010 NOSIG
LELC - Murcia/San Javier
Actualización: 02/12/2022 20:30
Few Clouds
Few Clouds
 Viento del NNO
Viento: NNO 13 km/h
Temperatura: 12°C
Rocío: 9°C
Humedad: 82%
Barómetro: 1010 hPa
Nubosidad: Few Clouds
Visibilidad: 10 km
Cloud details: Few Clouds 1372 m
2022/12/02 19:30 LELC 021930Z 33007KT 9999 FEW045 12/09 Q1010 NOSIG
 
LEAL - Alicante
Actualización: 02/12/2022 20:30
Mostly Cloudy
Mostly Cloudy
 Viento del N
Viento: N 6 km/h
Temperatura: 12°C
Rocío: 9°C
Humedad: 82%
Barómetro: 1010 hPa
Nubosidad: Mostly Cloudy
Visibilidad: 10 km
Cloud details: Few Clouds 1189 m
Mostly Cloudy 1829 m
2022/12/02 19:30 LEAL 021930Z 36003KT 330V050 9999 FEW039 BKN060 12/09 Q1010 NOSIG
LEAB - Albacete
Actualización: 02/12/2022 20:30
Mostly Cloudy
Mostly Cloudy
 Viento del varies
Viento: varies 4 km/h
Temperatura: 7°C
Rocío: 3°C
Humedad: 76%
Barómetro: 1011 hPa
Nubosidad: Mostly Cloudy
Visibilidad: 10 km
Cloud details: Mostly Cloudy 1219 m
2022/12/02 19:30 LEAB 021930Z VRB02KT 9999 BKN040 07/03 Q1011 NOSIG
LEAM - Almería
Actualización: 02/12/2022 20:30
Mostly Cloudy
Mostly Cloudy
 Viento del calm
Viento: Calma
Temperatura: 15°C
Rocío: 9°C
Humedad: 68%
Barómetro: 1009 hPa
Nubosidad: Mostly Cloudy
Visibilidad: 10 km
Cloud details: Mostly Cloudy 2438 m
2022/12/02 19:30 LEAM 021930Z 00000KT 9999 BKN080 15/09 Q1009

La estación de MeteoMurcia.com, publica sus datos en los siguientes proyectos:

Weather Underground PWS IMURCIAP2 Meteoclimatic www.awekas.at

Web Analytics

Clicky